sensor_id;sensor_type;location;lat;lon;timestamp;P1;durP1;ratioP1;P2;durP2;ratioP2
78004;SDS011;67209;51.698;-0.292;2023-08-06T00:01:58;3.00;;;1.73;;
78004;SDS011;67209;51.698;-0.292;2023-08-06T00:04:24;3.88;;;1.42;;
78004;SDS011;67209;51.698;-0.292;2023-08-06T00:06:50;3.25;;;1.33;;
78004;SDS011;67209;51.698;-0.292;2023-08-06T00:09:16;3.63;;;1.60;;
78004;SDS011;67209;51.698;-0.292;2023-08-06T00:11:42;4.07;;;1.83;;
78004;SDS011;67209;51.698;-0.292;2023-08-06T00:14:09;4.38;;;1.48;;
78004;SDS011;67209;51.698;-0.292;2023-08-06T00:16:35;3.08;;;1.60;;
78004;SDS011;67209;51.698;-0.292;2023-08-06T00:19:01;4.13;;;1.63;;
78004;SDS011;67209;51.698;-0.292;2023-08-06T00:21:27;4.78;;;1.70;;
78004;SDS011;67209;51.698;-0.292;2023-08-06T00:23:53;3.33;;;1.73;;
78004;SDS011;67209;51.698;-0.292;2023-08-06T00:26:19;2.47;;;1.45;;
78004;SDS011;67209;51.698;-0.292;2023-08-06T00:28:45;4.25;;;1.80;;
78004;SDS011;67209;51.698;-0.292;2023-08-06T00:31:11;2.90;;;1.55;;
78004;SDS011;67209;51.698;-0.292;2023-08-06T00:33:37;4.13;;;1.85;;
78004;SDS011;67209;51.698;-0.292;2023-08-06T00:36:03;4.75;;;1.75;;
78004;SDS011;67209;51.698;-0.292;2023-08-06T00:38:29;5.22;;;1.67;;
78004;SDS011;67209;51.698;-0.292;2023-08-06T00:40:55;5.40;;;1.85;;
78004;SDS011;67209;51.698;-0.292;2023-08-06T00:43:21;4.35;;;1.77;;
78004;SDS011;67209;51.698;-0.292;2023-08-06T00:45:47;4.50;;;2.10;;
78004;SDS011;67209;51.698;-0.292;2023-08-06T00:48:13;3.30;;;1.60;;
78004;SDS011;67209;51.698;-0.292;2023-08-06T00:50:39;4.40;;;2.15;;
78004;SDS011;67209;51.698;-0.292;2023-08-06T00:53:05;4.57;;;2.22;;
78004;SDS011;67209;51.698;-0.292;2023-08-06T00:55:32;6.47;;;2.42;;
78004;SDS011;67209;51.698;-0.292;2023-08-06T00:57:58;6.18;;;2.20;;
78004;SDS011;67209;51.698;-0.292;2023-08-06T01:00:24;8.73;;;2.60;;
78004;SDS011;67209;51.698;-0.292;2023-08-06T01:02:51;6.18;;;2.50;;
78004;SDS011;67209;51.698;-0.292;2023-08-06T01:05:17;5.93;;;2.20;;
78004;SDS011;67209;51.698;-0.292;2023-08-06T01:13:08;7.70;;;2.05;;
78004;SDS011;67209;51.698;-0.292;2023-08-06T01:15:47;5.78;;;2.35;;
78004;SDS011;67209;51.698;-0.292;2023-08-06T01:18:34;6.07;;;2.22;;
78004;SDS011;67209;51.698;-0.292;2023-08-06T01:21:02;7.70;;;2.70;;
78004;SDS011;67209;51.698;-0.292;2023-08-06T01:23:28;4.88;;;2.42;;
78004;SDS011;67209;51.698;-0.292;2023-08-06T01:28:36;5.05;;;2.17;;
78004;SDS011;67209;51.698;-0.292;2023-08-06T01:31:05;8.13;;;2.30;;
78004;SDS011;67209;51.698;-0.292;2023-08-06T01:33:35;6.00;;;2.33;;
78004;SDS011;67209;51.698;-0.292;2023-08-06T01:36:04;5.28;;;2.58;;
78004;SDS011;67209;51.698;-0.292;2023-08-06T01:38:31;9.02;;;3.47;;
78004;SDS011;67209;51.698;-0.292;2023-08-06T01:40:57;5.60;;;2.03;;
78004;SDS011;67209;51.698;-0.292;2023-08-06T01:43:23;7.40;;;2.33;;
78004;SDS011;67209;51.698;-0.292;2023-08-06T01:45:49;5.20;;;2.17;;
78004;SDS011;67209;51.698;-0.292;2023-08-06T01:48:15;5.63;;;2.20;;
78004;SDS011;67209;51.698;-0.292;2023-08-06T01:50:41;5.78;;;2.38;;
78004;SDS011;67209;51.698;-0.292;2023-08-06T01:53:07;5.65;;;2.20;;
78004;SDS011;67209;51.698;-0.292;2023-08-06T01:55:33;6.45;;;2.40;;
78004;SDS011;67209;51.698;-0.292;2023-08-06T01:57:59;5.50;;;2.25;;
78004;SDS011;67209;51.698;-0.292;2023-08-06T02:00:25;7.22;;;2.28;;
78004;SDS011;67209;51.698;-0.292;2023-08-06T02:02:53;6.55;;;2.22;;
78004;SDS011;67209;51.698;-0.292;2023-08-06T02:05:19;5.20;;;2.10;;
78004;SDS011;67209;51.698;-0.292;2023-08-06T02:07:45;5.50;;;2.45;;
78004;SDS011;67209;51.698;-0.292;2023-08-06T02:10:11;5.72;;;2.40;;
78004;SDS011;67209;51.698;-0.292;2023-08-06T02:12:37;5.18;;;2.10;;
78004;SDS011;67209;51.698;-0.292;2023-08-06T02:15:04;5.78;;;1.92;;
78004;SDS011;67209;51.698;-0.292;2023-08-06T02:17:30;4.22;;;2.10;;
78004;SDS011;67209;51.698;-0.292;2023-08-06T02:19:56;6.22;;;2.05;;
78004;SDS011;67209;51.698;-0.292;2023-08-06T02:22:22;4.63;;;2.10;;
78004;SDS011;67209;51.698;-0.292;2023-08-06T02:24:49;5.82;;;2.13;;
78004;SDS011;67209;51.698;-0.292;2023-08-06T02:27:15;5.65;;;2.22;;
78004;SDS011;67209;51.698;-0.292;2023-08-06T02:29:41;5.13;;;2.08;;
78004;SDS011;67209;51.698;-0.292;2023-08-06T02:32:07;4.20;;;2.20;;
78004;SDS011;67209;51.698;-0.292;2023-08-06T02:34:33;5.10;;;2.20;;
78004;SDS011;67209;51.698;-0.292;2023-08-06T02:36:59;5.45;;;2.22;;
78004;SDS011;67209;51.698;-0.292;2023-08-06T02:39:25;4.13;;;1.83;;
78004;SDS011;67209;51.698;-0.292;2023-08-06T02:41:51;8.48;;;2.42;;
78004;SDS011;67209;51.698;-0.292;2023-08-06T02:44:17;6.93;;;2.33;;
78004;SDS011;67209;51.698;-0.292;2023-08-06T02:46:44;5.95;;;2.45;;
78004;SDS011;67209;51.698;-0.292;2023-08-06T02:49:10;5.80;;;2.40;;
78004;SDS011;67209;51.698;-0.292;2023-08-06T02:51:36;5.78;;;2.25;;
78004;SDS011;67209;51.698;-0.292;2023-08-06T02:54:02;3.53;;;2.05;;
78004;SDS011;67209;51.698;-0.292;2023-08-06T02:56:28;4.55;;;2.05;;
78004;SDS011;67209;51.698;-0.292;2023-08-06T02:58:54;5.15;;;2.35;;
78004;SDS011;67209;51.698;-0.292;2023-08-06T03:01:20;10.95;;;2.30;;
78004;SDS011;67209;51.698;-0.292;2023-08-06T03:03:48;6.57;;;2.10;;
78004;SDS011;67209;51.698;-0.292;2023-08-06T03:06:14;4.88;;;2.17;;
78004;SDS011;67209;51.698;-0.292;2023-08-06T03:08:40;6.22;;;2.63;;
78004;SDS011;67209;51.698;-0.292;2023-08-06T03:11:06;7.63;;;2.45;;
78004;SDS011;67209;51.698;-0.292;2023-08-06T03:13:32;3.70;;;1.80;;
78004;SDS011;67209;51.698;-0.292;2023-08-06T03:15:59;6.03;;;2.05;;
78004;SDS011;67209;51.698;-0.292;2023-08-06T03:18:25;4.00;;;1.83;;
78004;SDS011;67209;51.698;-0.292;2023-08-06T03:20:51;4.13;;;2.08;;
78004;SDS011;67209;51.698;-0.292;2023-08-06T03:23:17;4.72;;;2.40;;
78004;SDS011;67209;51.698;-0.292;2023-08-06T03:25:44;4.55;;;2.30;;
78004;SDS011;67209;51.698;-0.292;2023-08-06T03:28:10;7.03;;;2.45;;
78004;SDS011;67209;51.698;-0.292;2023-08-06T03:30:36;5.25;;;2.33;;
78004;SDS011;67209;51.698;-0.292;2023-08-06T03:33:02;7.65;;;2.65;;
78004;SDS011;67209;51.698;-0.292;2023-08-06T03:35:28;4.40;;;2.13;;
78004;SDS011;67209;51.698;-0.292;2023-08-06T03:37:54;5.10;;;2.20;;
78004;SDS011;67209;51.698;-0.292;2023-08-06T03:40:20;4.22;;;2.65;;
78004;SDS011;67209;51.698;-0.292;2023-08-06T03:42:46;5.82;;;2.03;;
78004;SDS011;67209;51.698;-0.292;2023-08-06T03:45:12;5.43;;;2.35;;
78004;SDS011;67209;51.698;-0.292;2023-08-06T03:47:38;6.75;;;2.38;;
78004;SDS011;67209;51.698;-0.292;2023-08-06T03:50:04;4.32;;;1.90;;
78004;SDS011;67209;51.698;-0.292;2023-08-06T03:52:30;6.63;;;1.98;;
78004;SDS011;67209;51.698;-0.292;2023-08-06T03:54:56;5.13;;;2.13;;
78004;SDS011;67209;51.698;-0.292;2023-08-06T03:57:22;5.32;;;2.72;;
78004;SDS011;67209;51.698;-0.292;2023-08-06T03:59:48;6.35;;;1.88;;
78004;SDS011;67209;51.698;-0.292;2023-08-06T04:02:14;3.50;;;1.85;;
78004;SDS011;67209;51.698;-0.292;2023-08-06T04:04:40;3.67;;;2.05;;
78004;SDS011;67209;51.698;-0.292;2023-08-06T04:07:06;5.00;;;2.00;;
78004;SDS011;67209;51.698;-0.292;2023-08-06T04:09:32;4.53;;;2.30;;
78004;SDS011;67209;51.698;-0.292;2023-08-06T04:11:58;7.53;;;2.47;;
78004;SDS011;67209;51.698;-0.292;2023-08-06T04:14:26;12.48;;;2.83;;
78004;SDS011;67209;51.698;-0.292;2023-08-06T04:16:52;4.78;;;2.17;;
78004;SDS011;67209;51.698;-0.292;2023-08-06T04:19:18;5.85;;;2.58;;
78004;SDS011;67209;51.698;-0.292;2023-08-06T04:21:44;7.47;;;2.88;;
78004;SDS011;67209;51.698;-0.292;2023-08-06T04:24:10;6.35;;;2.50;;
78004;SDS011;67209;51.698;-0.292;2023-08-06T04:26:36;4.53;;;2.00;;
78004;SDS011;67209;51.698;-0.292;2023-08-06T04:29:02;6.10;;;2.30;;
78004;SDS011;67209;51.698;-0.292;2023-08-06T04:31:29;5.97;;;2.17;;
78004;SDS011;67209;51.698;-0.292;2023-08-06T04:33:55;5.00;;;2.20;;
78004;SDS011;67209;51.698;-0.292;2023-08-06T04:36:21;5.18;;;2.42;;
78004;SDS011;67209;51.698;-0.292;2023-08-06T04:38:47;5.55;;;2.25;;
78004;SDS011;67209;51.698;-0.292;2023-08-06T04:41:13;5.78;;;2.63;;
78004;SDS011;67209;51.698;-0.292;2023-08-06T04:43:39;4.63;;;2.13;;
78004;SDS011;67209;51.698;-0.292;2023-08-06T04:46:05;8.38;;;2.60;;
78004;SDS011;67209;51.698;-0.292;2023-08-06T04:48:41;5.45;;;2.60;;
78004;SDS011;67209;51.698;-0.292;2023-08-06T04:51:06;4.28;;;2.30;;
78004;SDS011;67209;51.698;-0.292;2023-08-06T04:53:32;5.15;;;2.20;;
78004;SDS011;67209;51.698;-0.292;2023-08-06T04:55:58;5.88;;;2.30;;
78004;SDS011;67209;51.698;-0.292;2023-08-06T04:58:24;5.82;;;2.33;;
78004;SDS011;67209;51.698;-0.292;2023-08-06T05:00:50;5.18;;;2.45;;
78004;SDS011;67209;51.698;-0.292;2023-08-06T05:03:16;5.50;;;2.60;;
78004;SDS011;67209;51.698;-0.292;2023-08-06T05:05:42;8.68;;;2.72;;
78004;SDS011;67209;51.698;-0.292;2023-08-06T05:08:13;3.67;;;2.40;;
78004;SDS011;67209;51.698;-0.292;2023-08-06T05:10:41;5.68;;;2.47;;
78004;SDS011;67209;51.698;-0.292;2023-08-06T05:13:07;14.63;;;2.70;;
78004;SDS011;67209;51.698;-0.292;2023-08-06T05:15:33;5.15;;;2.40;;
78004;SDS011;67209;51.698;-0.292;2023-08-06T05:18:00;7.18;;;2.50;;
78004;SDS011;67209;51.698;-0.292;2023-08-06T05:20:26;6.70;;;2.30;;
78004;SDS011;67209;51.698;-0.292;2023-08-06T05:22:51;8.95;;;2.70;;
78004;SDS011;67209;51.698;-0.292;2023-08-06T05:25:17;6.10;;;2.20;;
78004;SDS011;67209;51.698;-0.292;2023-08-06T05:27:43;7.28;;;2.45;;
78004;SDS011;67209;51.698;-0.292;2023-08-06T05:30:10;6.28;;;2.60;;
78004;SDS011;67209;51.698;-0.292;2023-08-06T05:32:36;5.47;;;2.60;;
78004;SDS011;67209;51.698;-0.292;2023-08-06T05:35:02;4.55;;;2.47;;
78004;SDS011;67209;51.698;-0.292;2023-08-06T05:37:28;6.38;;;2.88;;
78004;SDS011;67209;51.698;-0.292;2023-08-06T05:39:54;4.55;;;2.42;;
78004;SDS011;67209;51.698;-0.292;2023-08-06T05:42:20;9.35;;;2.78;;
78004;SDS011;67209;51.698;-0.292;2023-08-06T05:44:46;6.50;;;2.70;;
78004;SDS011;67209;51.698;-0.292;2023-08-06T05:47:12;6.22;;;3.00;;
78004;SDS011;67209;51.698;-0.292;2023-08-06T05:49:38;7.63;;;2.97;;
78004;SDS011;67209;51.698;-0.292;2023-08-06T05:52:04;4.57;;;2.30;;
78004;SDS011;67209;51.698;-0.292;2023-08-06T05:54:31;7.57;;;3.08;;
78004;SDS011;67209;51.698;-0.292;2023-08-06T05:56:57;5.70;;;2.72;;
78004;SDS011;67209;51.698;-0.292;2023-08-06T05:59:23;7.30;;;3.17;;
78004;SDS011;67209;51.698;-0.292;2023-08-06T06:01:49;6.05;;;2.67;;
78004;SDS011;67209;51.698;-0.292;2023-08-06T06:04:15;6.55;;;2.45;;
78004;SDS011;67209;51.698;-0.292;2023-08-06T06:06:41;6.45;;;2.67;;
78004;SDS011;67209;51.698;-0.292;2023-08-06T06:09:07;7.32;;;2.35;;
78004;SDS011;67209;51.698;-0.292;2023-08-06T06:11:33;6.82;;;3.60;;
78004;SDS011;67209;51.698;-0.292;2023-08-06T06:13:59;6.05;;;2.58;;
78004;SDS011;67209;51.698;-0.292;2023-08-06T06:16:25;6.72;;;2.47;;
78004;SDS011;67209;51.698;-0.292;2023-08-06T06:18:51;4.60;;;2.35;;
78004;SDS011;67209;51.698;-0.292;2023-08-06T06:21:19;5.38;;;2.45;;
78004;SDS011;67209;51.698;-0.292;2023-08-06T06:23:45;4.93;;;2.40;;
78004;SDS011;67209;51.698;-0.292;2023-08-06T06:26:11;5.35;;;2.65;;
78004;SDS011;67209;51.698;-0.292;2023-08-06T06:28:37;4.30;;;2.30;;
78004;SDS011;67209;51.698;-0.292;2023-08-06T06:31:03;4.85;;;2.63;;
78004;SDS011;67209;51.698;-0.292;2023-08-06T06:33:29;6.65;;;3.28;;
78004;SDS011;67209;51.698;-0.292;2023-08-06T06:35:55;6.90;;;2.90;;
78004;SDS011;67209;51.698;-0.292;2023-08-06T06:38:21;4.93;;;2.85;;
78004;SDS011;67209;51.698;-0.292;2023-08-06T06:40:57;5.97;;;2.70;;
78004;SDS011;67209;51.698;-0.292;2023-08-06T06:43:23;6.82;;;2.90;;
78004;SDS011;67209;51.698;-0.292;2023-08-06T06:45:52;5.05;;;2.45;;
78004;SDS011;67209;51.698;-0.292;2023-08-06T06:48:19;6.20;;;2.70;;
78004;SDS011;67209;51.698;-0.292;2023-08-06T06:50:48;5.13;;;2.75;;
78004;SDS011;67209;51.698;-0.292;2023-08-06T06:53:14;4.68;;;2.60;;
78004;SDS011;67209;51.698;-0.292;2023-08-06T06:55:40;4.65;;;3.03;;
78004;SDS011;67209;51.698;-0.292;2023-08-06T06:58:06;5.13;;;2.78;;
78004;SDS011;67209;51.698;-0.292;2023-08-06T07:00:32;4.70;;;2.25;;
78004;SDS011;67209;51.698;-0.292;2023-08-06T07:02:58;8.65;;;2.60;;
78004;SDS011;67209;51.698;-0.292;2023-08-06T07:05:24;5.63;;;2.58;;
78004;SDS011;67209;51.698;-0.292;2023-08-06T07:07:51;6.63;;;2.70;;
78004;SDS011;67209;51.698;-0.292;2023-08-06T07:10:17;4.35;;;2.30;;
78004;SDS011;67209;51.698;-0.292;2023-08-06T07:12:43;5.00;;;2.47;;
78004;SDS011;67209;51.698;-0.292;2023-08-06T07:15:09;4.45;;;2.63;;
78004;SDS011;67209;51.698;-0.292;2023-08-06T07:17:36;4.15;;;2.22;;
78004;SDS011;67209;51.698;-0.292;2023-08-06T07:20:02;5.95;;;2.33;;
78004;SDS011;67209;51.698;-0.292;2023-08-06T07:22:28;5.50;;;2.50;;
78004;SDS011;67209;51.698;-0.292;2023-08-06T07:24:54;3.00;;;2.08;;
78004;SDS011;67209;51.698;-0.292;2023-08-06T07:27:20;4.70;;;2.20;;
78004;SDS011;67209;51.698;-0.292;2023-08-06T07:29:46;5.55;;;2.47;;
78004;SDS011;67209;51.698;-0.292;2023-08-06T07:32:13;4.93;;;2.42;;
78004;SDS011;67209;51.698;-0.292;2023-08-06T07:34:39;4.82;;;2.13;;
78004;SDS011;67209;51.698;-0.292;2023-08-06T07:37:05;5.13;;;1.80;;
78004;SDS011;67209;51.698;-0.292;2023-08-06T07:39:31;3.78;;;2.05;;
78004;SDS011;67209;51.698;-0.292;2023-08-06T07:41:57;7.50;;;2.50;;
78004;SDS011;67209;51.698;-0.292;2023-08-06T07:44:23;3.30;;;2.13;;
78004;SDS011;67209;51.698;-0.292;2023-08-06T07:46:49;4.50;;;2.15;;
78004;SDS011;67209;51.698;-0.292;2023-08-06T07:49:15;4.32;;;1.90;;
78004;SDS011;67209;51.698;-0.292;2023-08-06T07:51:41;3.80;;;1.75;;
78004;SDS011;67209;51.698;-0.292;2023-08-06T07:54:08;3.90;;;1.70;;
78004;SDS011;67209;51.698;-0.292;2023-08-06T07:56:34;4.50;;;1.73;;
78004;SDS011;67209;51.698;-0.292;2023-08-06T07:59:01;3.17;;;1.55;;
78004;SDS011;67209;51.698;-0.292;2023-08-06T08:01:27;3.90;;;1.67;;
78004;SDS011;67209;51.698;-0.292;2023-08-06T08:03:53;2.67;;;1.30;;
78004;SDS011;67209;51.698;-0.292;2023-08-06T08:06:19;3.90;;;1.33;;
78004;SDS011;67209;51.698;-0.292;2023-08-06T08:08:45;1.92;;;1.20;;
78004;SDS011;67209;51.698;-0.292;2023-08-06T08:11:11;1.63;;;1.13;;
78004;SDS011;67209;51.698;-0.292;2023-08-06T08:13:37;2.53;;;1.30;;
78004;SDS011;67209;51.698;-0.292;2023-08-06T08:16:03;2.67;;;1.33;;
78004;SDS011;67209;51.698;-0.292;2023-08-06T08:18:29;2.38;;;1.30;;
78004;SDS011;67209;51.698;-0.292;2023-08-06T08:20:56;10.75;;;2.58;;
78004;SDS011;67209;51.698;-0.292;2023-08-06T08:23:22;2.67;;;1.20;;
78004;SDS011;67209;51.698;-0.292;2023-08-06T08:25:48;2.25;;;1.10;;
78004;SDS011;67209;51.698;-0.292;2023-08-06T08:28:14;2.60;;;1.30;;
78004;SDS011;67209;51.698;-0.292;2023-08-06T08:30:41;5.25;;;1.45;;
78004;SDS011;67209;51.698;-0.292;2023-08-06T08:33:07;3.30;;;1.27;;
78004;SDS011;67209;51.698;-0.292;2023-08-06T08:35:33;3.28;;;1.40;;
78004;SDS011;67209;51.698;-0.292;2023-08-06T08:37:59;2.00;;;1.27;;
78004;SDS011;67209;51.698;-0.292;2023-08-06T08:40:30;2.47;;;0.95;;
78004;SDS011;67209;51.698;-0.292;2023-08-06T08:42:57;3.45;;;1.20;;
78004;SDS011;67209;51.698;-0.292;2023-08-06T08:45:23;3.03;;;1.30;;
78004;SDS011;67209;51.698;-0.292;2023-08-06T08:47:51;2.38;;;1.00;;
78004;SDS011;67209;51.698;-0.292;2023-08-06T08:50:17;2.65;;;1.20;;
78004;SDS011;67209;51.698;-0.292;2023-08-06T08:52:44;1.90;;;1.20;;
78004;SDS011;67209;51.698;-0.292;2023-08-06T08:55:11;2.28;;;1.25;;
78004;SDS011;67209;51.698;-0.292;2023-08-06T08:57:37;2.97;;;1.20;;
78004;SDS011;67209;51.698;-0.292;2023-08-06T09:00:03;1.88;;;1.13;;
78004;SDS011;67209;51.698;-0.292;2023-08-06T09:02:29;1.98;;;1.27;;
78004;SDS011;67209;51.698;-0.292;2023-08-06T09:04:58;1.98;;;1.30;;
78004;SDS011;67209;51.698;-0.292;2023-08-06T09:07:27;2.53;;;1.00;;
78004;SDS011;67209;51.698;-0.292;2023-08-06T09:09:53;1.85;;;1.25;;
78004;SDS011;67209;51.698;-0.292;2023-08-06T09:12:40;2.25;;;1.27;;
78004;SDS011;67209;51.698;-0.292;2023-08-06T09:15:06;2.00;;;0.95;;
78004;SDS011;67209;51.698;-0.292;2023-08-06T09:17:32;3.10;;;1.00;;
78004;SDS011;67209;51.698;-0.292;2023-08-06T09:19:58;2.72;;;1.45;;
78004;SDS011;67209;51.698;-0.292;2023-08-06T09:22:24;1.85;;;1.00;;
78004;SDS011;67209;51.698;-0.292;2023-08-06T09:24:51;2.30;;;1.40;;
78004;SDS011;67209;51.698;-0.292;2023-08-06T09:27:17;2.45;;;1.23;;
78004;SDS011;67209;51.698;-0.292;2023-08-06T09:29:43;1.60;;;1.10;;
78004;SDS011;67209;51.698;-0.292;2023-08-06T09:32:10;1.70;;;1.02;;
78004;SDS011;67209;51.698;-0.292;2023-08-06T09:34:38;2.25;;;1.10;;
78004;SDS011;67209;51.698;-0.292;2023-08-06T09:37:04;2.85;;;1.10;;
78004;SDS011;67209;51.698;-0.292;2023-08-06T09:39:30;2.95;;;1.27;;
78004;SDS011;67209;51.698;-0.292;2023-08-06T09:42:00;2.08;;;1.30;;
78004;SDS011;67209;51.698;-0.292;2023-08-06T09:44:27;1.58;;;1.20;;
78004;SDS011;67209;51.698;-0.292;2023-08-06T09:46:54;2.17;;;1.17;;
78004;SDS011;67209;51.698;-0.292;2023-08-06T09:49:21;2.38;;;1.23;;
78004;SDS011;67209;51.698;-0.292;2023-08-06T09:51:47;3.38;;;1.60;;
78004;SDS011;67209;51.698;-0.292;2023-08-06T09:54:16;2.03;;;1.08;;
78004;SDS011;67209;51.698;-0.292;2023-08-06T09:56:43;2.63;;;1.23;;
78004;SDS011;67209;51.698;-0.292;2023-08-06T09:59:09;3.13;;;1.30;;
78004;SDS011;67209;51.698;-0.292;2023-08-06T10:01:38;2.17;;;1.60;;
78004;SDS011;67209;51.698;-0.292;2023-08-06T10:04:05;3.00;;;1.20;;
78004;SDS011;67209;51.698;-0.292;2023-08-06T10:06:36;3.00;;;1.20;;
78004;SDS011;67209;51.698;-0.292;2023-08-06T10:09:06;3.90;;;1.33;;
78004;SDS011;67209;51.698;-0.292;2023-08-06T10:11:33;1.98;;;1.13;;
78004;SDS011;67209;51.698;-0.292;2023-08-06T10:14:16;1.90;;;1.30;;
78004;SDS011;67209;51.698;-0.292;2023-08-06T10:16:44;4.15;;;1.33;;
78004;SDS011;67209;51.698;-0.292;2023-08-06T10:19:10;2.72;;;1.50;;
78004;SDS011;67209;51.698;-0.292;2023-08-06T10:21:40;2.17;;;1.00;;
78004;SDS011;67209;51.698;-0.292;2023-08-06T10:24:06;2.75;;;1.27;;
78004;SDS011;67209;51.698;-0.292;2023-08-06T10:26:36;3.40;;;1.10;;
78004;SDS011;67209;51.698;-0.292;2023-08-06T10:29:30;2.60;;;1.25;;
78004;SDS011;67209;51.698;-0.292;2023-08-06T10:34:53;3.88;;;1.60;;
78004;SDS011;67209;51.698;-0.292;2023-08-06T10:37:20;1.85;;;1.10;;
78004;SDS011;67209;51.698;-0.292;2023-08-06T10:39:51;1.85;;;1.10;;
78004;SDS011;67209;51.698;-0.292;2023-08-06T10:42:20;2.42;;;1.50;;
78004;SDS011;67209;51.698;-0.292;2023-08-06T10:47:37;2.05;;;1.10;;
78004;SDS011;67209;51.698;-0.292;2023-08-06T10:50:04;1.77;;;0.82;;
78004;SDS011;67209;51.698;-0.292;2023-08-06T10:52:30;3.08;;;1.20;;
78004;SDS011;67209;51.698;-0.292;2023-08-06T10:54:56;1.60;;;0.93;;
78004;SDS011;67209;51.698;-0.292;2023-08-06T10:57:23;2.28;;;1.27;;
78004;SDS011;67209;51.698;-0.292;2023-08-06T10:59:49;2.78;;;1.50;;
78004;SDS011;67209;51.698;-0.292;2023-08-06T11:02:16;2.83;;;1.05;;
78004;SDS011;67209;51.698;-0.292;2023-08-06T11:04:42;2.38;;;1.40;;
78004;SDS011;67209;51.698;-0.292;2023-08-06T11:07:08;2.28;;;1.15;;
78004;SDS011;67209;51.698;-0.292;2023-08-06T11:09:34;3.15;;;1.30;;
78004;SDS011;67209;51.698;-0.292;2023-08-06T11:12:00;4.60;;;1.48;;
78004;SDS011;67209;51.698;-0.292;2023-08-06T11:14:26;2.45;;;1.20;;
78004;SDS011;67209;51.698;-0.292;2023-08-06T11:16:52;2.92;;;1.27;;
78004;SDS011;67209;51.698;-0.292;2023-08-06T11:19:19;3.00;;;1.40;;
78004;SDS011;67209;51.698;-0.292;2023-08-06T11:21:45;3.88;;;1.40;;
78004;SDS011;67209;51.698;-0.292;2023-08-06T11:24:12;2.15;;;1.40;;
78004;SDS011;67209;51.698;-0.292;2023-08-06T11:26:38;2.97;;;1.45;;
78004;SDS011;67209;51.698;-0.292;2023-08-06T11:29:05;2.08;;;1.40;;
78004;SDS011;67209;51.698;-0.292;2023-08-06T11:31:31;2.58;;;1.55;;
78004;SDS011;67209;51.698;-0.292;2023-08-06T11:33:57;3.55;;;1.75;;
78004;SDS011;67209;51.698;-0.292;2023-08-06T11:38:56;1.90;;;1.10;;
78004;SDS011;67209;51.698;-0.292;2023-08-06T11:41:22;2.65;;;1.55;;
78004;SDS011;67209;51.698;-0.292;2023-08-06T11:43:48;2.55;;;1.35;;
78004;SDS011;67209;51.698;-0.292;2023-08-06T11:46:14;2.90;;;1.60;;
78004;SDS011;67209;51.698;-0.292;2023-08-06T11:48:56;2.90;;;2.03;;
78004;SDS011;67209;51.698;-0.292;2023-08-06T11:51:23;3.78;;;1.65;;
78004;SDS011;67209;51.698;-0.292;2023-08-06T11:53:51;1.80;;;1.20;;
78004;SDS011;67209;51.698;-0.292;2023-08-06T11:56:17;1.83;;;1.33;;
78004;SDS011;67209;51.698;-0.292;2023-08-06T11:58:43;3.05;;;1.27;;
78004;SDS011;67209;51.698;-0.292;2023-08-06T12:01:09;3.78;;;1.40;;
78004;SDS011;67209;51.698;-0.292;2023-08-06T12:03:41;4.97;;;1.65;;
78004;SDS011;67209;51.698;-0.292;2023-08-06T12:06:07;7.28;;;1.92;;
78004;SDS011;67209;51.698;-0.292;2023-08-06T12:08:34;1.95;;;1.50;;
78004;SDS011;67209;51.698;-0.292;2023-08-06T12:11:00;2.45;;;1.40;;
78004;SDS011;67209;51.698;-0.292;2023-08-06T12:13:26;3.15;;;1.33;;
78004;SDS011;67209;51.698;-0.292;2023-08-06T12:15:53;2.00;;;1.23;;
78004;SDS011;67209;51.698;-0.292;2023-08-06T12:18:22;3.55;;;1.40;;
78004;SDS011;67209;51.698;-0.292;2023-08-06T12:20:48;2.67;;;1.23;;
78004;SDS011;67209;51.698;-0.292;2023-08-06T12:23:14;4.10;;;1.58;;
78004;SDS011;67209;51.698;-0.292;2023-08-06T12:25:40;2.50;;;1.20;;
78004;SDS011;67209;51.698;-0.292;2023-08-06T12:28:07;2.92;;;1.88;;
78004;SDS011;67209;51.698;-0.292;2023-08-06T12:30:34;1.60;;;1.20;;
78004;SDS011;67209;51.698;-0.292;2023-08-06T12:33:00;2.25;;;1.40;;
78004;SDS011;67209;51.698;-0.292;2023-08-06T12:35:26;2.42;;;1.30;;
78004;SDS011;67209;51.698;-0.292;2023-08-06T12:37:52;3.05;;;1.60;;
78004;SDS011;67209;51.698;-0.292;2023-08-06T12:40:19;2.15;;;1.20;;
78004;SDS011;67209;51.698;-0.292;2023-08-06T12:42:46;4.45;;;1.50;;
78004;SDS011;67209;51.698;-0.292;2023-08-06T12:45:12;2.42;;;1.40;;
78004;SDS011;67209;51.698;-0.292;2023-08-06T12:47:39;2.83;;;1.33;;
78004;SDS011;67209;51.698;-0.292;2023-08-06T12:50:05;3.22;;;1.60;;
78004;SDS011;67209;51.698;-0.292;2023-08-06T12:52:31;3.28;;;1.65;;
78004;SDS011;67209;51.698;-0.292;2023-08-06T12:54:57;2.90;;;1.42;;
78004;SDS011;67209;51.698;-0.292;2023-08-06T12:57:23;3.03;;;1.27;;
78004;SDS011;67209;51.698;-0.292;2023-08-06T12:59:49;3.10;;;1.40;;
78004;SDS011;67209;51.698;-0.292;2023-08-06T13:02:15;2.28;;;1.15;;
78004;SDS011;67209;51.698;-0.292;2023-08-06T13:04:41;3.22;;;1.20;;
78004;SDS011;67209;51.698;-0.292;2023-08-06T13:07:07;2.67;;;1.13;;
78004;SDS011;67209;51.698;-0.292;2023-08-06T13:09:34;4.03;;;1.52;;
78004;SDS011;67209;51.698;-0.292;2023-08-06T13:12:00;2.38;;;1.50;;
78004;SDS011;67209;51.698;-0.292;2023-08-06T13:14:30;4.65;;;1.63;;
78004;SDS011;67209;51.698;-0.292;2023-08-06T13:16:56;1.70;;;1.17;;
78004;SDS011;67209;51.698;-0.292;2023-08-06T13:19:22;2.90;;;1.60;;
78004;SDS011;67209;51.698;-0.292;2023-08-06T13:24:17;1.80;;;1.02;;
78004;SDS011;67209;51.698;-0.292;2023-08-06T13:26:43;2.10;;;1.00;;
78004;SDS011;67209;51.698;-0.292;2023-08-06T13:29:09;1.17;;;0.90;;
78004;SDS011;67209;51.698;-0.292;2023-08-06T13:31:36;1.95;;;0.90;;
78004;SDS011;67209;51.698;-0.292;2023-08-06T13:34:02;1.40;;;0.90;;
78004;SDS011;67209;51.698;-0.292;2023-08-06T13:36:28;2.17;;;1.13;;
78004;SDS011;67209;51.698;-0.292;2023-08-06T13:38:55;1.58;;;0.60;;
78004;SDS011;67209;51.698;-0.292;2023-08-06T13:41:21;1.48;;;0.85;;
78004;SDS011;67209;51.698;-0.292;2023-08-06T13:43:47;1.50;;;1.05;;
78004;SDS011;67209;51.698;-0.292;2023-08-06T13:46:13;3.60;;;0.80;;
78004;SDS011;67209;51.698;-0.292;2023-08-06T13:48:43;2.55;;;1.05;;
78004;SDS011;67209;51.698;-0.292;2023-08-06T13:51:10;1.48;;;0.85;;
78004;SDS011;67209;51.698;-0.292;2023-08-06T13:53:36;5.38;;;0.70;;
78004;SDS011;67209;51.698;-0.292;2023-08-06T13:56:02;2.85;;;0.80;;
78004;SDS011;67209;51.698;-0.292;2023-08-06T13:58:28;1.35;;;0.80;;
78004;SDS011;67209;51.698;-0.292;2023-08-06T14:00:54;1.83;;;0.93;;
78004;SDS011;67209;51.698;-0.292;2023-08-06T14:03:21;1.77;;;0.70;;
78004;SDS011;67209;51.698;-0.292;2023-08-06T14:05:47;1.27;;;0.57;;
78004;SDS011;67209;51.698;-0.292;2023-08-06T14:08:13;1.13;;;0.80;;
78004;SDS011;67209;51.698;-0.292;2023-08-06T14:10:39;3.42;;;1.00;;
78004;SDS011;67209;51.698;-0.292;2023-08-06T14:13:05;1.20;;;0.68;;
78004;SDS011;67209;51.698;-0.292;2023-08-06T14:15:31;1.20;;;0.80;;
78004;SDS011;67209;51.698;-0.292;2023-08-06T14:17:58;0.95;;;0.60;;
78004;SDS011;67209;51.698;-0.292;2023-08-06T14:20:24;1.25;;;0.63;;
78004;SDS011;67209;51.698;-0.292;2023-08-06T14:22:50;1.33;;;0.70;;
78004;SDS011;67209;51.698;-0.292;2023-08-06T14:25:16;1.10;;;0.65;;
78004;SDS011;67209;51.698;-0.292;2023-08-06T14:27:42;1.30;;;0.80;;
78004;SDS011;67209;51.698;-0.292;2023-08-06T14:30:08;1.15;;;0.70;;
78004;SDS011;67209;51.698;-0.292;2023-08-06T14:32:34;1.50;;;0.82;;
78004;SDS011;67209;51.698;-0.292;2023-08-06T14:35:00;1.50;;;0.65;;
78004;SDS011;67209;51.698;-0.292;2023-08-06T14:37:26;1.45;;;0.90;;
78004;SDS011;67209;51.698;-0.292;2023-08-06T14:39:52;1.00;;;0.60;;
78004;SDS011;67209;51.698;-0.292;2023-08-06T14:42:18;1.00;;;0.70;;
78004;SDS011;67209;51.698;-0.292;2023-08-06T14:44:44;1.00;;;0.60;;
78004;SDS011;67209;51.698;-0.292;2023-08-06T14:47:10;1.92;;;0.68;;
78004;SDS011;67209;51.698;-0.292;2023-08-06T14:49:37;1.05;;;0.65;;